Weather at Westsound/WSX Seaplane Base

Public forecast

Using degrees Fahrenheit for public forecast. Weather courtesy of forecast.io.

Closest aviation weather report (METAR) to Westsound/WSX Seaplane Base

Closest report is Orcas Island Airport, 5.7 nm (10.6 km) NNE.

2024/05/21 01:35 (retrieved 21 minutes ago)

KORS 210135Z AUTO 15009G15KT 10SM CLR 16/05 A3017 RMK AO2

Closest aviation forecast (TAF) to Westsound/WSX Seaplane Base

Closest forecast is Victoria Harbour Seaplane Base, 20.2 nm (37.4 km) SW.

2024/05/20 21:00 (retrieved 5 hours ago)

TAF CYWH 202040Z 2021/2104 18008KT P6SM FEW030 BKN230 FM210000 22015KT P6SM BKN120 RMK NXT FCST BY 211400Z